sensor_id;sensor_type;location;lat;lon;timestamp;P1;durP1;ratioP1;P2;durP2;ratioP2
11911;SDS011;6016;41.928;25.556;2023-09-08T00:02:00;9.63;;;5.38;;
11911;SDS011;6016;41.928;25.556;2023-09-08T00:04:28;10.75;;;5.85;;
11911;SDS011;6016;41.928;25.556;2023-09-08T00:06:55;9.23;;;4.88;;
11911;SDS011;6016;41.928;25.556;2023-09-08T00:09:21;7.07;;;4.38;;
11911;SDS011;6016;41.928;25.556;2023-09-08T00:11:48;9.82;;;4.97;;
11911;SDS011;6016;41.928;25.556;2023-09-08T00:14:15;9.60;;;4.85;;
11911;SDS011;6016;41.928;25.556;2023-09-08T00:16:42;8.88;;;4.85;;
11911;SDS011;6016;41.928;25.556;2023-09-08T00:19:09;8.80;;;4.80;;
11911;SDS011;6016;41.928;25.556;2023-09-08T00:21:37;8.75;;;5.35;;
11911;SDS011;6016;41.928;25.556;2023-09-08T00:24:04;10.85;;;5.53;;
11911;SDS011;6016;41.928;25.556;2023-09-08T00:26:31;10.93;;;5.65;;
11911;SDS011;6016;41.928;25.556;2023-09-08T00:28:58;12.93;;;6.00;;
11911;SDS011;6016;41.928;25.556;2023-09-08T00:31:25;12.57;;;5.82;;
11911;SDS011;6016;41.928;25.556;2023-09-08T00:33:52;12.25;;;5.55;;
11911;SDS011;6016;41.928;25.556;2023-09-08T00:36:19;8.52;;;4.90;;
11911;SDS011;6016;41.928;25.556;2023-09-08T00:38:47;12.68;;;5.28;;
11911;SDS011;6016;41.928;25.556;2023-09-08T00:41:14;10.70;;;5.50;;
11911;SDS011;6016;41.928;25.556;2023-09-08T00:43:40;7.57;;;4.47;;
11911;SDS011;6016;41.928;25.556;2023-09-08T00:46:07;9.85;;;5.15;;
11911;SDS011;6016;41.928;25.556;2023-09-08T00:48:35;9.80;;;5.15;;
11911;SDS011;6016;41.928;25.556;2023-09-08T00:51:03;12.40;;;5.38;;
11911;SDS011;6016;41.928;25.556;2023-09-08T00:53:32;9.88;;;5.18;;
11911;SDS011;6016;41.928;25.556;2023-09-08T00:56:01;10.65;;;5.68;;
11911;SDS011;6016;41.928;25.556;2023-09-08T00:58:28;8.40;;;4.80;;
11911;SDS011;6016;41.928;25.556;2023-09-08T01:00:55;10.98;;;5.53;;
11911;SDS011;6016;41.928;25.556;2023-09-08T01:03:22;12.73;;;5.35;;
11911;SDS011;6016;41.928;25.556;2023-09-08T01:05:49;9.15;;;5.10;;
11911;SDS011;6016;41.928;25.556;2023-09-08T01:08:17;9.07;;;5.20;;
11911;SDS011;6016;41.928;25.556;2023-09-08T01:10:44;7.50;;;4.93;;
11911;SDS011;6016;41.928;25.556;2023-09-08T01:13:14;7.70;;;5.10;;
11911;SDS011;6016;41.928;25.556;2023-09-08T01:15:41;8.02;;;4.63;;
11911;SDS011;6016;41.928;25.556;2023-09-08T01:18:07;8.50;;;5.30;;
11911;SDS011;6016;41.928;25.556;2023-09-08T01:20:35;13.68;;;5.43;;
11911;SDS011;6016;41.928;25.556;2023-09-08T01:23:18;9.70;;;4.80;;
11911;SDS011;6016;41.928;25.556;2023-09-08T01:25:50;8.75;;;5.10;;
11911;SDS011;6016;41.928;25.556;2023-09-08T01:28:21;8.45;;;5.03;;
11911;SDS011;6016;41.928;25.556;2023-09-08T01:30:48;9.40;;;5.18;;
11911;SDS011;6016;41.928;25.556;2023-09-08T01:33:16;8.73;;;5.40;;
11911;SDS011;6016;41.928;25.556;2023-09-08T01:35:43;8.52;;;5.53;;
11911;SDS011;6016;41.928;25.556;2023-09-08T01:38:10;7.22;;;4.53;;
11911;SDS011;6016;41.928;25.556;2023-09-08T01:40:37;8.43;;;5.38;;
11911;SDS011;6016;41.928;25.556;2023-09-08T01:43:05;8.38;;;5.43;;
11911;SDS011;6016;41.928;25.556;2023-09-08T01:45:32;8.85;;;5.25;;
11911;SDS011;6016;41.928;25.556;2023-09-08T01:47:59;11.57;;;5.10;;
11911;SDS011;6016;41.928;25.556;2023-09-08T01:50:26;7.72;;;5.07;;
11911;SDS011;6016;41.928;25.556;2023-09-08T01:52:53;7.72;;;4.70;;
11911;SDS011;6016;41.928;25.556;2023-09-08T01:55:20;9.07;;;5.10;;
11911;SDS011;6016;41.928;25.556;2023-09-08T01:57:46;10.27;;;5.45;;
11911;SDS011;6016;41.928;25.556;2023-09-08T02:00:15;9.60;;;4.65;;
11911;SDS011;6016;41.928;25.556;2023-09-08T02:02:42;8.73;;;4.65;;
11911;SDS011;6016;41.928;25.556;2023-09-08T02:05:09;9.35;;;5.20;;
11911;SDS011;6016;41.928;25.556;2023-09-08T02:07:35;10.05;;;5.00;;
11911;SDS011;6016;41.928;25.556;2023-09-08T02:10:02;10.77;;;5.07;;
11911;SDS011;6016;41.928;25.556;2023-09-08T02:12:29;10.00;;;4.50;;
11911;SDS011;6016;41.928;25.556;2023-09-08T02:14:56;9.63;;;4.90;;
11911;SDS011;6016;41.928;25.556;2023-09-08T02:17:26;8.20;;;4.93;;
11911;SDS011;6016;41.928;25.556;2023-09-08T02:19:53;7.03;;;4.95;;
11911;SDS011;6016;41.928;25.556;2023-09-08T02:22:19;9.80;;;5.28;;
11911;SDS011;6016;41.928;25.556;2023-09-08T02:24:46;9.18;;;5.15;;
11911;SDS011;6016;41.928;25.556;2023-09-08T02:27:13;7.80;;;4.35;;
11911;SDS011;6016;41.928;25.556;2023-09-08T02:29:40;14.00;;;5.20;;
11911;SDS011;6016;41.928;25.556;2023-09-08T02:32:06;8.90;;;4.90;;
11911;SDS011;6016;41.928;25.556;2023-09-08T02:34:35;8.18;;;4.25;;
11911;SDS011;6016;41.928;25.556;2023-09-08T02:37:03;7.40;;;4.38;;
11911;SDS011;6016;41.928;25.556;2023-09-08T02:39:30;9.02;;;5.00;;
11911;SDS011;6016;41.928;25.556;2023-09-08T02:41:56;7.60;;;4.90;;
11911;SDS011;6016;41.928;25.556;2023-09-08T02:44:23;8.40;;;4.68;;
11911;SDS011;6016;41.928;25.556;2023-09-08T02:46:52;9.85;;;5.13;;
11911;SDS011;6016;41.928;25.556;2023-09-08T02:49:18;9.50;;;5.13;;
11911;SDS011;6016;41.928;25.556;2023-09-08T02:51:47;9.00;;;5.07;;
11911;SDS011;6016;41.928;25.556;2023-09-08T02:54:13;9.50;;;5.05;;
11911;SDS011;6016;41.928;25.556;2023-09-08T02:56:40;9.07;;;5.45;;
11911;SDS011;6016;41.928;25.556;2023-09-08T02:59:07;6.90;;;4.65;;
11911;SDS011;6016;41.928;25.556;2023-09-08T03:01:34;10.30;;;5.15;;
11911;SDS011;6016;41.928;25.556;2023-09-08T03:04:00;11.75;;;5.93;;
11911;SDS011;6016;41.928;25.556;2023-09-08T03:06:27;14.10;;;4.97;;
11911;SDS011;6016;41.928;25.556;2023-09-08T03:08:55;9.23;;;4.88;;
11911;SDS011;6016;41.928;25.556;2023-09-08T03:11:24;10.60;;;6.10;;
11911;SDS011;6016;41.928;25.556;2023-09-08T03:13:51;10.68;;;5.28;;
11911;SDS011;6016;41.928;25.556;2023-09-08T03:16:18;9.38;;;5.40;;
11911;SDS011;6016;41.928;25.556;2023-09-08T03:18:44;10.07;;;5.28;;
11911;SDS011;6016;41.928;25.556;2023-09-08T03:21:13;8.48;;;5.10;;
11911;SDS011;6016;41.928;25.556;2023-09-08T03:23:41;9.70;;;5.47;;
11911;SDS011;6016;41.928;25.556;2023-09-08T03:26:12;9.45;;;4.88;;
11911;SDS011;6016;41.928;25.556;2023-09-08T03:28:39;8.65;;;5.10;;
11911;SDS011;6016;41.928;25.556;2023-09-08T03:31:06;8.60;;;5.50;;
11911;SDS011;6016;41.928;25.556;2023-09-08T03:33:32;12.15;;;5.15;;
11911;SDS011;6016;41.928;25.556;2023-09-08T03:35:59;9.88;;;5.20;;
11911;SDS011;6016;41.928;25.556;2023-09-08T03:38:26;8.60;;;5.28;;
11911;SDS011;6016;41.928;25.556;2023-09-08T03:40:53;7.18;;;4.88;;
11911;SDS011;6016;41.928;25.556;2023-09-08T03:43:21;10.98;;;5.13;;
11911;SDS011;6016;41.928;25.556;2023-09-08T03:45:48;9.85;;;5.57;;
11911;SDS011;6016;41.928;25.556;2023-09-08T03:48:15;7.45;;;5.40;;
11911;SDS011;6016;41.928;25.556;2023-09-08T03:50:41;8.75;;;4.75;;
11911;SDS011;6016;41.928;25.556;2023-09-08T03:53:10;8.75;;;5.25;;
11911;SDS011;6016;41.928;25.556;2023-09-08T03:55:37;10.38;;;5.35;;
11911;SDS011;6016;41.928;25.556;2023-09-08T03:58:04;10.38;;;5.05;;
11911;SDS011;6016;41.928;25.556;2023-09-08T04:00:32;9.98;;;5.30;;
11911;SDS011;6016;41.928;25.556;2023-09-08T04:02:59;9.57;;;5.13;;
11911;SDS011;6016;41.928;25.556;2023-09-08T04:05:26;8.52;;;5.30;;
11911;SDS011;6016;41.928;25.556;2023-09-08T04:07:53;7.82;;;4.38;;
11911;SDS011;6016;41.928;25.556;2023-09-08T04:10:19;8.93;;;4.60;;
11911;SDS011;6016;41.928;25.556;2023-09-08T04:12:46;8.63;;;5.03;;
11911;SDS011;6016;41.928;25.556;2023-09-08T04:15:13;7.75;;;5.38;;
11911;SDS011;6016;41.928;25.556;2023-09-08T04:17:41;10.18;;;5.10;;
11911;SDS011;6016;41.928;25.556;2023-09-08T04:20:08;11.98;;;5.32;;
11911;SDS011;6016;41.928;25.556;2023-09-08T04:22:35;9.55;;;5.20;;
11911;SDS011;6016;41.928;25.556;2023-09-08T04:25:02;7.30;;;4.30;;
11911;SDS011;6016;41.928;25.556;2023-09-08T04:27:30;12.05;;;5.18;;
11911;SDS011;6016;41.928;25.556;2023-09-08T04:29:57;11.65;;;5.30;;
11911;SDS011;6016;41.928;25.556;2023-09-08T04:32:24;11.10;;;5.45;;
11911;SDS011;6016;41.928;25.556;2023-09-08T04:34:52;8.90;;;5.03;;
11911;SDS011;6016;41.928;25.556;2023-09-08T04:37:19;9.77;;;5.00;;
11911;SDS011;6016;41.928;25.556;2023-09-08T04:39:46;11.90;;;5.43;;
11911;SDS011;6016;41.928;25.556;2023-09-08T04:42:13;12.70;;;5.22;;
11911;SDS011;6016;41.928;25.556;2023-09-08T04:44:40;7.90;;;5.03;;
11911;SDS011;6016;41.928;25.556;2023-09-08T04:47:06;8.13;;;4.97;;
11911;SDS011;6016;41.928;25.556;2023-09-08T04:49:33;7.60;;;4.70;;
11911;SDS011;6016;41.928;25.556;2023-09-08T04:52:02;7.60;;;4.75;;
11911;SDS011;6016;41.928;25.556;2023-09-08T04:54:29;8.00;;;5.07;;
11911;SDS011;6016;41.928;25.556;2023-09-08T04:56:57;12.20;;;5.00;;
11911;SDS011;6016;41.928;25.556;2023-09-08T04:59:24;10.05;;;5.28;;
11911;SDS011;6016;41.928;25.556;2023-09-08T05:01:51;8.65;;;4.72;;
11911;SDS011;6016;41.928;25.556;2023-09-08T05:04:17;10.75;;;4.95;;
11911;SDS011;6016;41.928;25.556;2023-09-08T05:06:45;9.00;;;4.70;;
11911;SDS011;6016;41.928;25.556;2023-09-08T05:09:13;8.25;;;4.80;;
11911;SDS011;6016;41.928;25.556;2023-09-08T05:11:40;15.90;;;6.20;;
11911;SDS011;6016;41.928;25.556;2023-09-08T05:14:07;17.77;;;6.07;;
11911;SDS011;6016;41.928;25.556;2023-09-08T05:16:34;13.57;;;7.90;;
11911;SDS011;6016;41.928;25.556;2023-09-08T05:19:10;7.38;;;5.40;;
11911;SDS011;6016;41.928;25.556;2023-09-08T05:21:37;8.82;;;4.45;;
11911;SDS011;6016;41.928;25.556;2023-09-08T05:24:04;19.27;;;5.03;;
11911;SDS011;6016;41.928;25.556;2023-09-08T05:26:33;6.65;;;4.20;;
11911;SDS011;6016;41.928;25.556;2023-09-08T05:29:00;9.95;;;4.60;;
11911;SDS011;6016;41.928;25.556;2023-09-08T05:31:27;8.52;;;4.93;;
11911;SDS011;6016;41.928;25.556;2023-09-08T05:33:54;8.52;;;4.47;;
11911;SDS011;6016;41.928;25.556;2023-09-08T05:36:20;6.93;;;4.03;;
11911;SDS011;6016;41.928;25.556;2023-09-08T05:38:47;7.05;;;3.97;;
11911;SDS011;6016;41.928;25.556;2023-09-08T05:41:14;7.97;;;4.47;;
11911;SDS011;6016;41.928;25.556;2023-09-08T05:43:42;5.63;;;3.90;;
11911;SDS011;6016;41.928;25.556;2023-09-08T05:46:10;5.80;;;3.80;;
11911;SDS011;6016;41.928;25.556;2023-09-08T05:48:38;9.68;;;4.10;;
11911;SDS011;6016;41.928;25.556;2023-09-08T05:51:04;15.52;;;9.68;;
11911;SDS011;6016;41.928;25.556;2023-09-08T05:53:32;10.00;;;5.30;;
11911;SDS011;6016;41.928;25.556;2023-09-08T05:56:00;11.18;;;4.22;;
11911;SDS011;6016;41.928;25.556;2023-09-08T05:58:27;9.18;;;3.97;;
11911;SDS011;6016;41.928;25.556;2023-09-08T06:00:56;8.38;;;4.30;;
11911;SDS011;6016;41.928;25.556;2023-09-08T06:03:22;6.10;;;3.80;;
11911;SDS011;6016;41.928;25.556;2023-09-08T06:05:49;5.78;;;3.72;;
11911;SDS011;6016;41.928;25.556;2023-09-08T06:08:16;7.30;;;4.10;;
11911;SDS011;6016;41.928;25.556;2023-09-08T06:10:43;6.13;;;4.18;;
11911;SDS011;6016;41.928;25.556;2023-09-08T06:13:09;6.53;;;3.85;;
11911;SDS011;6016;41.928;25.556;2023-09-08T06:15:36;7.28;;;3.80;;
11911;SDS011;6016;41.928;25.556;2023-09-08T06:18:05;5.82;;;3.55;;
11911;SDS011;6016;41.928;25.556;2023-09-08T06:20:32;6.07;;;3.85;;
11911;SDS011;6016;41.928;25.556;2023-09-08T06:22:59;6.28;;;3.58;;
11911;SDS011;6016;41.928;25.556;2023-09-08T06:25:26;5.85;;;3.55;;
11911;SDS011;6016;41.928;25.556;2023-09-08T06:27:53;6.75;;;3.75;;
11911;SDS011;6016;41.928;25.556;2023-09-08T06:30:20;7.13;;;3.60;;
11911;SDS011;6016;41.928;25.556;2023-09-08T06:32:47;6.18;;;3.60;;
11911;SDS011;6016;41.928;25.556;2023-09-08T06:35:16;7.28;;;3.35;;
11911;SDS011;6016;41.928;25.556;2023-09-08T06:37:42;6.15;;;3.05;;
11911;SDS011;6016;41.928;25.556;2023-09-08T06:40:09;8.43;;;3.72;;
11911;SDS011;6016;41.928;25.556;2023-09-08T06:42:36;6.40;;;4.10;;
11911;SDS011;6016;41.928;25.556;2023-09-08T06:45:03;7.47;;;3.53;;
11911;SDS011;6016;41.928;25.556;2023-09-08T06:47:30;10.27;;;3.80;;
11911;SDS011;6016;41.928;25.556;2023-09-08T06:49:57;6.22;;;3.70;;
11911;SDS011;6016;41.928;25.556;2023-09-08T06:52:25;5.68;;;3.60;;
11911;SDS011;6016;41.928;25.556;2023-09-08T06:54:53;7.72;;;4.93;;
11911;SDS011;6016;41.928;25.556;2023-09-08T06:57:20;8.48;;;4.18;;
11911;SDS011;6016;41.928;25.556;2023-09-08T06:59:47;8.80;;;3.70;;
11911;SDS011;6016;41.928;25.556;2023-09-08T07:02:14;6.72;;;3.80;;
11911;SDS011;6016;41.928;25.556;2023-09-08T07:04:40;7.18;;;3.78;;
11911;SDS011;6016;41.928;25.556;2023-09-08T07:07:07;4.15;;;3.28;;
11911;SDS011;6016;41.928;25.556;2023-09-08T07:09:37;11.02;;;3.10;;
11911;SDS011;6016;41.928;25.556;2023-09-08T07:12:04;5.88;;;3.25;;
11911;SDS011;6016;41.928;25.556;2023-09-08T07:14:32;8.88;;;3.70;;
11911;SDS011;6016;41.928;25.556;2023-09-08T07:16:59;4.50;;;3.35;;
11911;SDS011;6016;41.928;25.556;2023-09-08T07:19:26;9.18;;;3.60;;
11911;SDS011;6016;41.928;25.556;2023-09-08T07:21:53;4.85;;;3.50;;
11911;SDS011;6016;41.928;25.556;2023-09-08T07:24:19;3.78;;;3.08;;
11911;SDS011;6016;41.928;25.556;2023-09-08T07:26:47;7.90;;;3.28;;
11911;SDS011;6016;41.928;25.556;2023-09-08T07:29:15;5.35;;;3.35;;
11911;SDS011;6016;41.928;25.556;2023-09-08T07:31:42;6.72;;;3.40;;
11911;SDS011;6016;41.928;25.556;2023-09-08T07:34:09;4.45;;;3.00;;
11911;SDS011;6016;41.928;25.556;2023-09-08T07:36:36;5.90;;;3.05;;
11911;SDS011;6016;41.928;25.556;2023-09-08T07:39:03;5.90;;;3.50;;
11911;SDS011;6016;41.928;25.556;2023-09-08T07:41:30;7.53;;;3.40;;
11911;SDS011;6016;41.928;25.556;2023-09-08T07:43:58;5.18;;;3.17;;
11911;SDS011;6016;41.928;25.556;2023-09-08T07:46:25;8.52;;;3.30;;
11911;SDS011;6016;41.928;25.556;2023-09-08T07:48:52;4.80;;;2.97;;
11911;SDS011;6016;41.928;25.556;2023-09-08T07:51:18;7.30;;;4.13;;
11911;SDS011;6016;41.928;25.556;2023-09-08T07:53:45;7.47;;;3.70;;
11911;SDS011;6016;41.928;25.556;2023-09-08T07:56:12;5.18;;;3.70;;
11911;SDS011;6016;41.928;25.556;2023-09-08T07:58:39;6.07;;;3.38;;
11911;SDS011;6016;41.928;25.556;2023-09-08T08:01:07;6.32;;;3.17;;
11911;SDS011;6016;41.928;25.556;2023-09-08T08:03:34;5.30;;;3.28;;
11911;SDS011;6016;41.928;25.556;2023-09-08T08:06:01;4.28;;;3.13;;
11911;SDS011;6016;41.928;25.556;2023-09-08T08:08:28;4.38;;;3.13;;
11911;SDS011;6016;41.928;25.556;2023-09-08T08:10:55;3.47;;;2.85;;
11911;SDS011;6016;41.928;25.556;2023-09-08T08:13:22;6.97;;;3.50;;
11911;SDS011;6016;41.928;25.556;2023-09-08T08:15:49;4.68;;;3.22;;
11911;SDS011;6016;41.928;25.556;2023-09-08T08:18:17;6.55;;;3.35;;
11911;SDS011;6016;41.928;25.556;2023-09-08T08:20:44;6.82;;;3.28;;
11911;SDS011;6016;41.928;25.556;2023-09-08T08:23:10;7.13;;;2.88;;
11911;SDS011;6016;41.928;25.556;2023-09-08T08:25:37;6.18;;;3.33;;
11911;SDS011;6016;41.928;25.556;2023-09-08T08:28:04;7.25;;;3.20;;
11911;SDS011;6016;41.928;25.556;2023-09-08T08:30:31;6.03;;;3.10;;
11911;SDS011;6016;41.928;25.556;2023-09-08T08:32:58;6.38;;;3.00;;
11911;SDS011;6016;41.928;25.556;2023-09-08T08:35:26;6.47;;;3.20;;
11911;SDS011;6016;41.928;25.556;2023-09-08T08:37:53;4.50;;;3.00;;
11911;SDS011;6016;41.928;25.556;2023-09-08T08:40:20;9.73;;;3.45;;
11911;SDS011;6016;41.928;25.556;2023-09-08T08:42:53;7.65;;;3.70;;
11911;SDS011;6016;41.928;25.556;2023-09-08T08:45:22;9.20;;;3.85;;
11911;SDS011;6016;41.928;25.556;2023-09-08T08:47:50;9.27;;;4.30;;
11911;SDS011;6016;41.928;25.556;2023-09-08T08:50:17;9.32;;;5.10;;
11911;SDS011;6016;41.928;25.556;2023-09-08T08:52:46;7.65;;;4.85;;
11911;SDS011;6016;41.928;25.556;2023-09-08T08:55:13;6.80;;;4.68;;
11911;SDS011;6016;41.928;25.556;2023-09-08T08:57:41;8.52;;;4.10;;
11911;SDS011;6016;41.928;25.556;2023-09-08T09:00:08;11.32;;;5.10;;
11911;SDS011;6016;41.928;25.556;2023-09-08T09:02:38;6.20;;;4.03;;
11911;SDS011;6016;41.928;25.556;2023-09-08T09:05:06;7.43;;;4.60;;
11911;SDS011;6016;41.928;25.556;2023-09-08T09:07:35;6.68;;;3.60;;
11911;SDS011;6016;41.928;25.556;2023-09-08T09:10:04;8.55;;;4.20;;
11911;SDS011;6016;41.928;25.556;2023-09-08T09:12:33;10.60;;;4.32;;
11911;SDS011;6016;41.928;25.556;2023-09-08T09:15:00;7.88;;;3.78;;
11911;SDS011;6016;41.928;25.556;2023-09-08T09:17:29;14.55;;;4.90;;
11911;SDS011;6016;41.928;25.556;2023-09-08T09:22:42;7.65;;;4.20;;
11911;SDS011;6016;41.928;25.556;2023-09-08T09:25:11;6.65;;;4.07;;
11911;SDS011;6016;41.928;25.556;2023-09-08T09:27:49;8.43;;;3.83;;
11911;SDS011;6016;41.928;25.556;2023-09-08T09:30:17;7.85;;;4.10;;
11911;SDS011;6016;41.928;25.556;2023-09-08T09:32:44;14.40;;;4.60;;
11911;SDS011;6016;41.928;25.556;2023-09-08T09:35:11;9.60;;;4.07;;
11911;SDS011;6016;41.928;25.556;2023-09-08T09:37:40;9.38;;;3.97;;
11911;SDS011;6016;41.928;25.556;2023-09-08T09:40:08;9.98;;;5.32;;
11911;SDS011;6016;41.928;25.556;2023-09-08T09:42:38;10.93;;;5.80;;
11911;SDS011;6016;41.928;25.556;2023-09-08T09:45:06;8.38;;;4.68;;
11911;SDS011;6016;41.928;25.556;2023-09-08T09:47:34;6.47;;;4.00;;
11911;SDS011;6016;41.928;25.556;2023-09-08T09:50:01;12.30;;;3.67;;
11911;SDS011;6016;41.928;25.556;2023-09-08T09:52:29;5.82;;;3.80;;
11911;SDS011;6016;41.928;25.556;2023-09-08T09:54:56;6.50;;;3.75;;
11911;SDS011;6016;41.928;25.556;2023-09-08T09:57:24;5.60;;;3.35;;
11911;SDS011;6016;41.928;25.556;2023-09-08T09:59:53;8.93;;;3.53;;
11911;SDS011;6016;41.928;25.556;2023-09-08T10:02:21;6.15;;;3.08;;
11911;SDS011;6016;41.928;25.556;2023-09-08T10:04:48;7.65;;;3.60;;
11911;SDS011;6016;41.928;25.556;2023-09-08T10:07:16;5.32;;;3.30;;
11911;SDS011;6016;41.928;25.556;2023-09-08T10:09:44;7.10;;;3.70;;
11911;SDS011;6016;41.928;25.556;2023-09-08T10:12:12;9.13;;;3.55;;
11911;SDS011;6016;41.928;25.556;2023-09-08T10:14:42;5.60;;;3.25;;
11911;SDS011;6016;41.928;25.556;2023-09-08T10:17:12;5.38;;;3.25;;
11911;SDS011;6016;41.928;25.556;2023-09-08T10:19:42;5.28;;;3.17;;
11911;SDS011;6016;41.928;25.556;2023-09-08T10:22:14;6.70;;;3.15;;
11911;SDS011;6016;41.928;25.556;2023-09-08T10:24:46;5.65;;;2.92;;
11911;SDS011;6016;41.928;25.556;2023-09-08T10:27:13;7.32;;;2.97;;
11911;SDS011;6016;41.928;25.556;2023-09-08T10:29:44;6.65;;;2.83;;
11911;SDS011;6016;41.928;25.556;2023-09-08T10:32:13;4.47;;;2.70;;
11911;SDS011;6016;41.928;25.556;2023-09-08T10:34:43;8.32;;;3.10;;
11911;SDS011;6016;41.928;25.556;2023-09-08T10:37:18;4.82;;;3.00;;
11911;SDS011;6016;41.928;25.556;2023-09-08T10:39:45;5.18;;;2.83;;
11911;SDS011;6016;41.928;25.556;2023-09-08T10:42:25;7.03;;;3.08;;
11911;SDS011;6016;41.928;25.556;2023-09-08T10:45:00;9.17;;;3.20;;
11911;SDS011;6016;41.928;25.556;2023-09-08T10:47:34;4.78;;;2.90;;
11911;SDS011;6016;41.928;25.556;2023-09-08T10:50:25;7.50;;;3.85;;
11911;SDS011;6016;41.928;25.556;2023-09-08T10:53:03;6.30;;;3.08;;
11911;SDS011;6016;41.928;25.556;2023-09-08T10:55:35;6.05;;;3.13;;
11911;SDS011;6016;41.928;25.556;2023-09-08T10:58:03;7.85;;;3.20;;
11911;SDS011;6016;41.928;25.556;2023-09-08T11:00:42;4.47;;;3.15;;
11911;SDS011;6016;41.928;25.556;2023-09-08T11:03:11;4.63;;;3.40;;
11911;SDS011;6016;41.928;25.556;2023-09-08T11:05:39;6.68;;;4.03;;
11911;SDS011;6016;41.928;25.556;2023-09-08T11:08:07;23.95;;;12.27;;
11911;SDS011;6016;41.928;25.556;2023-09-08T11:10:34;7.90;;;5.38;;
11911;SDS011;6016;41.928;25.556;2023-09-08T11:13:03;10.50;;;4.00;;
11911;SDS011;6016;41.928;25.556;2023-09-08T11:15:31;6.97;;;4.07;;
11911;SDS011;6016;41.928;25.556;2023-09-08T11:18:04;7.45;;;3.70;;
11911;SDS011;6016;41.928;25.556;2023-09-08T11:20:33;6.75;;;3.10;;
11911;SDS011;6016;41.928;25.556;2023-09-08T11:23:00;6.55;;;3.20;;
11911;SDS011;6016;41.928;25.556;2023-09-08T11:25:28;7.32;;;3.10;;
11911;SDS011;6016;41.928;25.556;2023-09-08T11:27:55;14.38;;;4.10;;
11911;SDS011;6016;41.928;25.556;2023-09-08T11:30:24;6.57;;;3.17;;
11911;SDS011;6016;41.928;25.556;2023-09-08T11:32:51;5.93;;;3.40;;
11911;SDS011;6016;41.928;25.556;2023-09-08T11:35:18;9.57;;;3.45;;
11911;SDS011;6016;41.928;25.556;2023-09-08T11:37:47;6.30;;;3.20;;
11911;SDS011;6016;41.928;25.556;2023-09-08T11:40:14;6.53;;;3.20;;
11911;SDS011;6016;41.928;25.556;2023-09-08T11:42:42;7.50;;;3.38;;
11911;SDS011;6016;41.928;25.556;2023-09-08T11:45:11;7.68;;;3.40;;
11911;SDS011;6016;41.928;25.556;2023-09-08T11:47:39;8.00;;;3.47;;
11911;SDS011;6016;41.928;25.556;2023-09-08T11:50:08;10.98;;;4.10;;
11911;SDS011;6016;41.928;25.556;2023-09-08T11:52:40;13.05;;;4.00;;
11911;SDS011;6016;41.928;25.556;2023-09-08T11:55:09;12.52;;;4.13;;
11911;SDS011;6016;41.928;25.556;2023-09-08T11:57:38;11.88;;;5.00;;
11911;SDS011;6016;41.928;25.556;2023-09-08T12:00:06;11.02;;;4.40;;
11911;SDS011;6016;41.928;25.556;2023-09-08T12:02:36;5.05;;;3.70;;
11911;SDS011;6016;41.928;25.556;2023-09-08T12:05:03;6.68;;;3.40;;
11911;SDS011;6016;41.928;25.556;2023-09-08T12:07:30;6.68;;;3.00;;
11911;SDS011;6016;41.928;25.556;2023-09-08T12:09:57;6.18;;;3.28;;
11911;SDS011;6016;41.928;25.556;2023-09-08T12:12:26;6.07;;;3.15;;
11911;SDS011;6016;41.928;25.556;2023-09-08T12:14:54;7.95;;;3.17;;
11911;SDS011;6016;41.928;25.556;2023-09-08T12:17:21;7.18;;;4.03;;
11911;SDS011;6016;41.928;25.556;2023-09-08T12:19:50;6.03;;;3.55;;
11911;SDS011;6016;41.928;25.556;2023-09-08T12:22:18;6.80;;;3.92;;
11911;SDS011;6016;41.928;25.556;2023-09-08T12:24:55;5.90;;;3.67;;
11911;SDS011;6016;41.928;25.556;2023-09-08T12:27:25;7.30;;;4.07;;
11911;SDS011;6016;41.928;25.556;2023-09-08T12:29:55;7.70;;;3.45;;
11911;SDS011;6016;41.928;25.556;2023-09-08T12:32:23;5.35;;;3.20;;
11911;SDS011;6016;41.928;25.556;2023-09-08T12:34:50;6.65;;;3.47;;
11911;SDS011;6016;41.928;25.556;2023-09-08T12:37:21;7.03;;;3.58;;
11911;SDS011;6016;41.928;25.556;2023-09-08T12:39:48;8.70;;;4.10;;
11911;SDS011;6016;41.928;25.556;2023-09-08T12:42:15;12.05;;;3.78;;
11911;SDS011;6016;41.928;25.556;2023-09-08T12:44:46;8.18;;;4.10;;
11911;SDS011;6016;41.928;25.556;2023-09-08T12:47:13;8.90;;;3.75;;
11911;SDS011;6016;41.928;25.556;2023-09-08T12:49:40;11.95;;;4.35;;
11911;SDS011;6016;41.928;25.556;2023-09-08T12:52:06;5.68;;;3.40;;
11911;SDS011;6016;41.928;25.556;2023-09-08T12:54:34;5.65;;;3.20;;
11911;SDS011;6016;41.928;25.556;2023-09-08T12:57:01;4.22;;;2.97;;
11911;SDS011;6016;41.928;25.556;2023-09-08T12:59:28;6.75;;;3.63;;
11911;SDS011;6016;41.928;25.556;2023-09-08T13:01:56;5.95;;;3.10;;
11911;SDS011;6016;41.928;25.556;2023-09-08T13:04:23;5.25;;;2.97;;
11911;SDS011;6016;41.928;25.556;2023-09-08T13:06:50;10.20;;;6.07;;
11911;SDS011;6016;41.928;25.556;2023-09-08T13:09:17;5.18;;;3.28;;
11911;SDS011;6016;41.928;25.556;2023-09-08T13:11:44;7.35;;;3.72;;
11911;SDS011;6016;41.928;25.556;2023-09-08T13:14:10;5.88;;;3.00;;
11911;SDS011;6016;41.928;25.556;2023-09-08T13:16:37;8.20;;;3.40;;
11911;SDS011;6016;41.928;25.556;2023-09-08T13:19:05;7.65;;;3.25;;
11911;SDS011;6016;41.928;25.556;2023-09-08T13:21:32;5.45;;;3.30;;
11911;SDS011;6016;41.928;25.556;2023-09-08T13:23:59;8.05;;;3.30;;
11911;SDS011;6016;41.928;25.556;2023-09-08T13:26:29;5.28;;;3.10;;
11911;SDS011;6016;41.928;25.556;2023-09-08T13:28:55;6.93;;;3.33;;
11911;SDS011;6016;41.928;25.556;2023-09-08T13:31:25;8.35;;;3.40;;
11911;SDS011;6016;41.928;25.556;2023-09-08T13:33:52;5.38;;;3.10;;
11911;SDS011;6016;41.928;25.556;2023-09-08T13:36:20;7.78;;;3.28;;
11911;SDS011;6016;41.928;25.556;2023-09-08T13:38:47;7.35;;;3.22;;
11911;SDS011;6016;41.928;25.556;2023-09-08T13:41:13;11.48;;;3.65;;
11911;SDS011;6016;41.928;25.556;2023-09-08T13:43:40;6.35;;;3.47;;
11911;SDS011;6016;41.928;25.556;2023-09-08T13:46:07;7.88;;;3.38;;
11911;SDS011;6016;41.928;25.556;2023-09-08T13:48:34;9.68;;;3.40;;
11911;SDS011;6016;41.928;25.556;2023-09-08T13:51:01;6.72;;;3.60;;
11911;SDS011;6016;41.928;25.556;2023-09-08T13:53:30;10.25;;;3.60;;
11911;SDS011;6016;41.928;25.556;2023-09-08T13:55:57;6.88;;;3.50;;
11911;SDS011;6016;41.928;25.556;2023-09-08T13:58:23;7.20;;;4.03;;
11911;SDS011;6016;41.928;25.556;2023-09-08T14:00:50;10.10;;;3.97;;
11911;SDS011;6016;41.928;25.556;2023-09-08T14:03:17;8.50;;;3.78;;
11911;SDS011;6016;41.928;25.556;2023-09-08T14:05:44;9.38;;;4.05;;
11911;SDS011;6016;41.928;25.556;2023-09-08T14:08:11;6.47;;;4.00;;
11911;SDS011;6016;41.928;25.556;2023-09-08T14:10:39;7.82;;;4.20;;
11911;SDS011;6016;41.928;25.556;2023-09-08T14:13:06;8.88;;;4.40;;
11911;SDS011;6016;41.928;25.556;2023-09-08T14:15:32;7.88;;;3.78;;
11911;SDS011;6016;41.928;25.556;2023-09-08T14:17:59;6.43;;;4.03;;
11911;SDS011;6016;41.928;25.556;2023-09-08T14:20:26;6.57;;;4.32;;
11911;SDS011;6016;41.928;25.556;2023-09-08T14:22:53;9.82;;;3.78;;
11911;SDS011;6016;41.928;25.556;2023-09-08T14:25:19;9.85;;;4.00;;
11911;SDS011;6016;41.928;25.556;2023-09-08T14:27:48;5.90;;;3.85;;
11911;SDS011;6016;41.928;25.556;2023-09-08T14:30:15;7.13;;;3.42;;
11911;SDS011;6016;41.928;25.556;2023-09-08T14:32:41;5.07;;;3.72;;
11911;SDS011;6016;41.928;25.556;2023-09-08T14:35:09;7.47;;;3.40;;
11911;SDS011;6016;41.928;25.556;2023-09-08T14:37:36;9.90;;;3.45;;
11911;SDS011;6016;41.928;25.556;2023-09-08T14:40:03;5.60;;;3.38;;
11911;SDS011;6016;41.928;25.556;2023-09-08T14:42:31;7.28;;;3.35;;
11911;SDS011;6016;41.928;25.556;2023-09-08T14:44:59;5.50;;;3.90;;
11911;SDS011;6016;41.928;25.556;2023-09-08T14:47:26;7.68;;;3.80;;
11911;SDS011;6016;41.928;25.556;2023-09-08T14:49:53;7.03;;;3.60;;
11911;SDS011;6016;41.928;25.556;2023-09-08T14:52:21;6.32;;;3.30;;